Time;durP1;ratioP1;P1;durP2;ratioP2;P2;SDS_P1;SDS_P2;PMS_P1;PMS_P2;Temp;Humidity;BMP_temperature;BMP_pressure;BME280_temperature;BME280_humidity;BME280_pressure;Samples;Min_cycle;Max_cycle;Signal;HPM_P1;HPM_P2
2021/10/27 00:01:24;;;;;;;1999.90;999.90;;;24.00;51.50;;;;;;5114961;28;20254;-64
2021/10/27 00:03:50;;;;;;;1999.90;999.90;;;23.90;51.90;;;;;;5114859;28;20159;-65
2021/10/27 00:06:17;;;;;;;1999.90;999.90;;;24.10;51.40;;;;;;5114824;28;20170;-64
2021/10/27 00:08:44;;;;;;;1999.90;999.90;;;24.10;51.50;;;;;;5114780;28;20174;-63
2021/10/27 00:11:11;;;;;;;1999.90;999.90;;;24.00;51.90;;;;;;5114790;28;20262;-64
2021/10/27 00:13:38;;;;;;;1999.90;999.90;;;23.90;52.20;;;;;;5114643;28;20203;-65
2021/10/27 00:16:06;;;;;;;1999.90;999.90;;;23.90;52.30;;;;;;5114656;28;20554;-64
2021/10/27 00:18:33;;;;;;;1999.90;999.90;;;23.90;52.30;;;;;;5114649;28;20167;-64
2021/10/27 00:21:00;;;;;;;1999.90;999.90;;;24.00;52.10;;;;;;5114388;28;20175;-64
2021/10/27 00:23:27;;;;;;;1999.90;999.90;;;24.00;52.00;;;;;;5114687;28;20179;-63
2021/10/27 00:25:54;;;;;;;1999.90;999.90;;;24.00;52.50;;;;;;5114431;28;20531;-64
2021/10/27 00:28:20;;;;;;;1999.90;999.90;;;23.80;53.10;;;;;;5114417;28;20192;-64
2021/10/27 00:30:47;;;;;;;1999.90;999.90;;;23.80;52.90;;;;;;5114489;28;20167;-65
2021/10/27 00:33:16;;;;;;;1999.90;999.90;;;23.80;53.20;;;;;;5114303;28;20625;-65
2021/10/27 00:35:43;;;;;;;1999.90;999.90;;;23.80;53.10;;;;;;5114184;28;20199;-64
2021/10/27 00:38:10;;;;;;;1999.90;999.90;;;23.90;53.30;;;;;;5114190;28;20159;-64
2021/10/27 00:40:37;;;;;;;1999.90;999.90;;;24.10;52.70;;;;;;5114310;28;20254;-66
2021/10/27 00:43:04;;;;;;;1999.90;999.90;;;24.20;52.50;;;;;;5114282;28;20620;-64
2021/10/27 00:45:31;;;;;;;1999.90;999.90;;;24.30;52.20;;;;;;5113233;28;20301;-65
2021/10/27 00:47:58;;;;;;;1999.90;999.90;;;24.20;52.30;;;;;;5113970;28;20515;-64
2021/10/27 00:50:25;;;;;;;1999.90;999.90;;;24.30;51.50;;;;;;5113973;28;20163;-64
2021/10/27 00:52:53;;;;;;;1999.90;999.90;;;24.30;52.10;;;;;;5113978;28;20182;-64
2021/10/27 00:55:20;;;;;;;1999.90;999.90;;;24.70;51.00;;;;;;5113875;28;20195;-64
2021/10/27 00:57:49;;;;;;;1999.90;999.90;;;24.50;51.60;;;;;;5113821;28;20182;-64
2021/10/27 01:00:16;;;;;;;1999.90;999.90;;;24.30;52.00;;;;;;5113759;28;20190;-64
2021/10/27 01:02:43;;;;;;;1999.90;999.90;;;24.20;52.80;;;;;;5113824;28;20160;-63
2021/10/27 01:05:12;;;;;;;1999.90;999.90;;;24.00;53.00;;;;;;5113688;28;20181;-64
2021/10/27 01:07:39;;;;;;;1999.90;999.90;;;23.90;53.60;;;;;;5113722;28;20202;-64
2021/10/27 01:10:06;;;;;;;1999.90;999.90;;;23.80;53.50;;;;;;5113949;28;20171;-64
2021/10/27 01:12:33;;;;;;;1999.90;999.90;;;23.80;53.60;;;;;;5113683;28;20166;-63
2021/10/27 01:15:00;;;;;;;1999.90;999.90;;;23.60;54.50;;;;;;5113372;28;20251;-64
2021/10/27 01:17:27;;;;;;;1999.90;999.90;;;23.50;55.20;;;;;;5113589;28;20167;-64
2021/10/27 01:19:56;;;;;;;1999.90;999.90;;;23.80;53.40;;;;;;5113676;28;20511;-64
2021/10/27 01:22:28;;;;;;;1999.90;999.90;;;23.70;54.20;;;;;;5113575;28;20171;-65
2021/10/27 01:24:56;;;;;;;1999.90;999.90;;;23.90;52.80;;;;;;5113521;28;20155;-64
2021/10/27 01:27:24;;;;;;;1999.90;999.90;;;24.30;51.10;;;;;;5113500;28;20189;-64
2021/10/27 01:29:52;;;;;;;1999.90;999.90;;;24.30;51.30;;;;;;5113499;28;20174;-64
2021/10/27 01:32:45;;;;;;;1999.90;999.90;;;24.70;51.30;;;;;;5113318;28;20178;-63
2021/10/27 01:35:14;;;;;;;1999.90;999.90;;;24.90;51.40;;;;;;5110922;28;20229;-65
2021/10/27 01:37:43;;;;;;;1999.90;999.90;;;24.90;51.10;;;;;;5113497;28;20171;-64
2021/10/27 01:40:14;;;;;;;1999.90;999.90;;;24.80;51.50;;;;;;5113355;28;20195;-65
2021/10/27 01:42:41;;;;;;;1999.90;999.90;;;24.80;51.10;;;;;;5113498;28;20159;-64
2021/10/27 01:45:09;;;;;;;1999.90;999.90;;;24.70;51.80;;;;;;5113173;28;20163;-64
2021/10/27 01:47:40;;;;;;;1999.90;999.90;;;24.70;51.80;;;;;;5113348;28;20168;-64
2021/10/27 01:50:07;;;;;;;1999.90;999.90;;;24.90;51.80;;;;;;5113391;28;20216;-64
2021/10/27 01:52:34;;;;;;;1999.90;999.90;;;25.00;51.20;;;;;;5113240;28;20250;-64
2021/10/27 01:55:01;;;;;;;1999.90;999.90;;;25.00;51.40;;;;;;5113017;28;20206;-64
2021/10/27 01:57:28;;;;;;;1999.90;999.90;;;24.90;51.60;;;;;;5115925;28;20164;-64
2021/10/27 01:59:55;;;;;;;1999.90;999.90;;;24.90;51.90;;;;;;5117274;28;20186;-65
2021/10/27 02:02:21;;;;;;;1999.90;999.90;;;24.80;52.10;;;;;;5117323;28;20163;-65
2021/10/27 02:04:48;;;;;;;1999.90;999.90;;;24.70;52.20;;;;;;5117241;28;20163;-64
2021/10/27 02:07:15;;;;;;;1999.90;999.90;;;24.60;52.70;;;;;;5098829;28;20181;-65
2021/10/27 02:09:42;;;;;;;1999.90;999.90;;;24.50;53.00;;;;;;5117406;28;20175;-65
2021/10/27 02:12:09;;;;;;;1999.90;999.90;;;24.50;52.90;;;;;;5117092;28;20175;-65
2021/10/27 02:14:36;;;;;;;1999.90;999.90;;;24.50;53.20;;;;;;5117022;28;20187;-65
2021/10/27 02:17:04;;;;;;;1999.90;999.90;;;24.60;53.20;;;;;;5116962;28;20262;-67
2021/10/27 02:19:31;;;;;;;1999.90;999.90;;;25.00;51.40;;;;;;5116920;28;20195;-66
2021/10/27 02:21:58;;;;;;;1999.90;999.90;;;25.10;51.20;;;;;;5116723;28;20542;-65
2021/10/27 02:24:25;;;;;;;1999.90;999.90;;;25.20;51.40;;;;;;5116892;28;20245;-64
2021/10/27 02:26:52;;;;;;;1999.90;999.90;;;25.10;51.40;;;;;;5116694;28;20516;-64
2021/10/27 02:29:19;;;;;;;1999.90;999.90;;;25.00;51.60;;;;;;5116753;28;20167;-64
2021/10/27 02:31:45;;;;;;;1999.90;999.90;;;24.90;52.00;;;;;;5116829;28;20171;-65
2021/10/27 02:34:12;;;;;;;1999.90;999.90;;;25.20;51.40;;;;;;5116760;28;20209;-64
2021/10/27 02:36:39;;;;;;;1999.90;999.90;;;25.00;52.10;;;;;;5116582;28;20216;-65
2021/10/27 02:39:07;;;;;;;1999.90;999.90;;;25.10;51.20;;;;;;5116534;28;20572;-65
2021/10/27 02:41:34;;;;;;;1999.90;999.90;;;25.20;51.70;;;;;;5116490;28;20171;-65
2021/10/27 02:44:01;;;;;;;1999.90;999.90;;;25.00;52.10;;;;;;5116502;28;20261;-64
2021/10/27 02:46:28;;;;;;;1999.90;999.90;;;24.90;52.50;;;;;;5116230;28;20227;-65
2021/10/27 02:48:55;;;;;;;1999.90;999.90;;;24.90;52.50;;;;;;5116424;28;20633;-64
2021/10/27 02:51:21;;;;;;;1999.90;999.90;;;24.90;52.60;;;;;;5116255;28;20535;-64
2021/10/27 02:53:48;;;;;;;1999.90;999.90;;;24.90;52.70;;;;;;5116341;28;20688;-65
2021/10/27 02:56:15;;;;;;;1999.90;999.90;;;24.90;52.70;;;;;;5116342;28;20201;-65
2021/10/27 02:58:42;;;;;;;1999.90;999.90;;;24.80;53.30;;;;;;5116200;28;20170;-64
2021/10/27 03:01:09;;;;;;;1999.90;999.90;;;24.70;53.00;;;;;;5116113;28;20542;-65
2021/10/27 03:03:36;;;;;;;1999.90;999.90;;;24.80;53.10;;;;;;5116079;28;20311;-65
2021/10/27 03:06:03;;;;;;;1999.90;999.90;;;24.90;53.00;;;;;;5116075;28;20500;-65
2021/10/27 03:08:30;;;;;;;1999.90;999.90;;;24.90;52.90;;;;;;5115490;28;20625;-64
2021/10/27 03:10:57;;;;;;;1999.90;999.90;;;24.70;53.40;;;;;;5115934;28;20167;-64
2021/10/27 03:13:23;;;;;;;1999.90;999.90;;;24.60;53.70;;;;;;5115927;28;20228;-64
2021/10/27 03:15:50;;;;;;;1999.90;999.90;;;24.50;54.60;;;;;;5115755;28;20222;-64
2021/10/27 03:18:17;;;;;;;1999.90;999.90;;;24.20;55.00;;;;;;5115987;28;20166;-65
2021/10/27 03:20:44;;;;;;;1999.90;999.90;;;24.30;54.50;;;;;;5115800;28;20213;-64
2021/10/27 03:23:11;;;;;;;1999.90;999.90;;;24.40;54.30;;;;;;5115694;28;20228;-64
2021/10/27 03:38:21;;;;;;;1999.90;999.90;;;24.50;53.00;;;;;;5151627;27;20518;-64
2021/10/27 03:40:48;;;;;;;1999.90;999.90;;;24.30;54.50;;;;;;5151659;27;20212;-63
2021/10/27 03:43:15;;;;;;;1999.90;999.90;;;24.30;54.90;;;;;;5151512;27;20166;-62
2021/10/27 03:45:42;;;;;;;1999.90;999.90;;;24.20;55.40;;;;;;5151370;27;20182;-65
2021/10/27 03:48:09;;;;;;;1999.90;999.90;;;24.20;54.80;;;;;;5151352;27;20185;-65
2021/10/27 03:50:36;;;;;;;1999.90;999.90;;;24.10;55.30;;;;;;5151512;27;20158;-65
2021/10/27 03:53:03;;;;;;;1999.90;999.90;;;23.90;55.30;;;;;;5151422;27;20166;-65
2021/10/27 03:55:30;;;;;;;1999.90;999.90;;;23.80;55.40;;;;;;5151499;27;20226;-65
2021/10/27 03:57:59;;;;;;;1999.90;999.90;;;23.70;56.60;;;;;;5151612;27;20210;-65
2021/10/27 04:00:26;;;;;;;1999.90;999.90;;;23.60;56.80;;;;;;5151219;27;20526;-65
2021/10/27 04:02:53;;;;;;;1999.90;999.90;;;23.40;57.20;;;;;;5150989;27;20185;-66
2021/10/27 04:05:20;;;;;;;1999.90;999.90;;;23.40;57.10;;;;;;5151114;27;20166;-65
2021/10/27 04:07:47;;;;;;;1999.90;999.90;;;23.30;57.50;;;;;;5151048;27;20247;-65
2021/10/27 04:10:14;;;;;;;1999.90;999.90;;;23.30;57.80;;;;;;5151071;27;20170;-65
2021/10/27 04:12:42;;;;;;;1999.90;999.90;;;23.30;58.00;;;;;;5150976;27;20166;-65
2021/10/27 04:15:11;;;;;;;1999.90;999.90;;;23.30;58.10;;;;;;5150955;27;20162;-65
2021/10/27 04:17:39;;;;;;;1999.90;999.90;;;23.50;57.40;;;;;;5150766;27;20188;-66
2021/10/27 04:20:07;;;;;;;1999.90;999.90;;;23.50;58.00;;;;;;5150942;27;20162;-65
2021/10/27 04:22:37;;;;;;;1999.90;999.90;;;23.40;58.40;;;;;;5150682;27;20173;-66
2021/10/27 04:25:05;;;;;;;1999.90;999.90;;;23.30;58.50;;;;;;5151105;27;20715;-65
2021/10/27 04:27:32;;;;;;;1999.90;999.90;;;23.20;59.50;;;;;;5150776;27;20194;-64
2021/10/27 04:29:59;;;;;;;1999.90;999.90;;;23.10;59.80;;;;;;5150666;27;20612;-65
2021/10/27 04:32:26;;;;;;;1999.90;999.90;;;23.10;60.20;;;;;;5150564;27;20222;-65
2021/10/27 04:34:53;;;;;;;1999.90;999.90;;;23.00;60.10;;;;;;5150492;27;20619;-65
2021/10/27 04:37:20;;;;;;;1999.90;999.90;;;23.00;60.70;;;;;;5147091;27;20221;-65
2021/10/27 04:39:48;;;;;;;1999.90;999.90;;;23.00;62.40;;;;;;5136707;27;20166;-65
2021/10/27 04:42:15;;;;;;;1999.90;999.90;;;23.00;61.00;;;;;;5136713;27;20565;-65
2021/10/27 04:44:42;;;;;;;1999.90;999.90;;;23.00;61.60;;;;;;5136665;27;20162;-65
2021/10/27 04:47:09;;;;;;;1999.90;999.90;;;23.00;60.80;;;;;;5136410;27;20269;-65
2021/10/27 04:49:36;;;;;;;1999.90;999.90;;;23.00;65.00;;;;;;5136568;27;20622;-65
2021/10/27 04:52:03;;;;;;;1999.90;999.90;;;23.00;64.60;;;;;;5136560;27;20228;-65
2021/10/27 04:54:30;;;;;;;1999.90;999.90;;;22.90;65.40;;;;;;5136355;27;20158;-65
2021/10/27 04:56:56;;;;;;;1999.90;999.90;;;22.90;64.20;;;;;;5136061;27;20182;-65
2021/10/27 04:59:23;;;;;;;1999.90;999.90;;;23.00;64.40;;;;;;5136185;27;20678;-66
2021/10/27 05:01:50;;;;;;;1999.90;999.90;;;23.10;65.20;;;;;;5136220;27;20222;-65
2021/10/27 05:04:17;;;;;;;1999.90;999.90;;;23.30;64.70;;;;;;5136166;27;20170;-66
2021/10/27 05:06:44;;;;;;;1999.90;999.90;;;23.40;64.60;;;;;;5136003;27;20656;-66
2021/10/27 05:09:11;;;;;;;1999.90;999.90;;;23.60;64.40;;;;;;5134772;27;20178;-65
2021/10/27 05:11:38;;;;;;;1999.90;999.90;;;23.70;67.50;;;;;;5136131;27;20170;-66
2021/10/27 05:14:05;;;;;;;1999.90;999.90;;;23.90;65.40;;;;;;5136139;27;20194;-66
2021/10/27 05:16:32;;;;;;;1999.90;999.90;;;24.00;59.90;;;;;;5135846;27;20159;-66
2021/10/27 05:18:58;;;;;;;1999.90;999.90;;;24.30;59.40;;;;;;5135576;27;20166;-66
2021/10/27 05:21:25;;;;;;;1999.90;999.90;;;24.50;58.20;;;;;;5135906;27;20170;-66
2021/10/27 05:23:52;;;;;;;1999.90;999.90;;;24.70;58.30;;;;;;5135843;27;20258;-66
2021/10/27 05:26:19;;;;;;;1999.90;999.90;;;24.90;59.80;;;;;;5135639;27;20198;-66
2021/10/27 05:28:46;;;;;;;1999.90;999.90;;;25.00;60.90;;;;;;5135493;27;20211;-66
2021/10/27 05:31:13;;;;;;;1999.90;999.90;;;25.20;60.50;;;;;;5135546;27;20182;-66
2021/10/27 05:33:40;;;;;;;1999.90;999.90;;;25.30;60.40;;;;;;5135605;27;20631;-66
2021/10/27 05:36:06;;;;;;;1999.90;999.90;;;25.50;60.50;;;;;;5135457;27;20201;-67
2021/10/27 05:38:34;;;;;;;1999.90;999.90;;;25.70;59.20;;;;;;5135496;27;20154;-65
2021/10/27 05:41:01;;;;;;;1999.90;999.90;;;26.00;56.70;;;;;;5135347;27;20322;-65
2021/10/27 05:43:28;;;;;;;1999.90;999.90;;;26.30;56.50;;;;;;5134962;27;20647;-65
2021/10/27 05:45:56;;;;;;;1999.90;999.90;;;26.60;56.10;;;;;;5134665;27;20198;-65
2021/10/27 05:48:27;;;;;;;1999.90;999.90;;;26.90;53.50;;;;;;5134767;27;20181;-64
2021/10/27 05:56:20;;;;;;;1999.90;999.90;;;27.20;52.00;;;;;;5135426;27;20189;-68
2021/10/27 05:58:48;;;;;;;1999.90;999.90;;;27.10;52.90;;;;;;5135218;27;20205;-68
2021/10/27 06:01:15;;;;;;;1999.90;999.90;;;27.20;51.40;;;;;;5134949;27;20198;-66
2021/10/27 06:03:42;;;;;;;1999.90;999.90;;;27.20;52.30;;;;;;5135028;27;20159;-73
2021/10/27 06:06:12;;;;;;;1999.90;999.90;;;27.30;53.00;;;;;;5134711;27;20222;-69
2021/10/27 06:08:39;;;;;;;1999.90;999.90;;;27.40;55.10;;;;;;5134788;27;20194;-70
2021/10/27 06:11:09;;;;;;;1999.90;999.90;;;27.50;55.60;;;;;;5134163;27;20162;-70
2021/10/27 06:13:43;;;;;;;1999.90;999.90;;;27.60;53.80;;;;;;5132175;27;20170;-69
2021/10/27 06:16:10;;;;;;;1999.90;999.90;;;27.80;50.90;;;;;;5133516;27;20162;-70
2021/10/27 06:18:36;;;;;;;1999.90;999.90;;;28.00;50.30;;;;;;5133300;27;20257;-73
2021/10/27 06:21:03;;;;;;;1999.90;999.90;;;28.20;49.10;;;;;;5132799;27;20253;-70
2021/10/27 06:23:30;;;;;;;1999.90;999.90;;;28.40;48.40;;;;;;5133543;27;20289;-70
2021/10/27 06:25:57;;;;;;;1999.90;999.90;;;28.60;49.00;;;;;;5133016;27;20198;-70
2021/10/27 06:28:27;;;;;;;1999.90;999.90;;;28.60;48.90;;;;;;5133258;27;20166;-70
2021/10/27 06:31:00;;;;;;;1999.90;999.90;;;28.70;50.30;;;;;;5133223;27;20629;-70
2021/10/27 06:36:03;;;;;;;1999.90;999.90;;;28.80;50.70;;;;;;5132987;27;20682;-70
2021/10/27 06:38:54;;;;;;;1999.90;999.90;;;29.00;50.20;;;;;;5133777;27;20317;-73
2021/10/27 06:46:50;;;;;;;1999.90;999.90;;;29.80;48.10;;;;;;5133088;27;20205;-69
2021/10/27 06:49:17;;;;;;;1999.90;999.90;;;30.10;45.80;;;;;;5132745;27;20167;-67
2021/10/27 06:51:44;;;;;;;1999.90;999.90;;;30.20;45.80;;;;;;5133254;27;20250;-65
2021/10/27 06:54:11;;;;;;;1999.90;999.90;;;30.00;44.80;;;;;;5132886;27;20555;-65
2021/10/27 06:56:38;;;;;;;1999.90;999.90;;;30.00;43.60;;;;;;5131547;27;20230;-68
2021/10/27 06:59:10;;;;;;;1999.90;999.90;;;29.90;43.40;;;;;;5132702;27;20163;-67
2021/10/27 07:07:04;;;;;;;1999.90;999.90;;;30.20;45.50;;;;;;5133330;27;20240;-64
2021/10/27 07:15:01;;;;;;;1999.90;999.90;;;30.20;43.00;;;;;;5132496;27;20162;-68
2021/10/27 07:17:32;;;;;;;1999.90;999.90;;;30.30;46.80;;;;;;5132897;27;20203;-65
2021/10/27 07:20:06;;;;;;;1999.90;999.90;;;30.20;45.40;;;;;;5132369;27;20151;-67
2021/10/27 07:22:33;;;;;;;1999.90;999.90;;;30.10;45.70;;;;;;5132827;27;20154;-67
2021/10/27 07:25:01;;;;;;;1999.90;999.90;;;30.10;44.70;;;;;;5132670;27;20184;-69
2021/10/27 07:27:29;;;;;;;1999.90;999.90;;;30.00;44.70;;;;;;5132827;27;20608;-72
2021/10/27 07:29:56;;;;;;;1999.90;999.90;;;30.10;43.00;;;;;;5131421;28;20174;-70
2021/10/27 07:32:24;;;;;;;1999.90;999.90;;;30.00;43.50;;;;;;5132572;27;20170;-75
2021/10/27 07:35:03;;;;;;;1999.90;999.90;;;29.90;43.10;;;;;;5133364;27;20246;-73
2021/10/27 07:43:02;;;;;;;1999.90;999.90;;;30.90;44.50;;;;;;5132573;27;20146;-69
2021/10/27 07:45:31;;;;;;;1999.90;999.90;;;31.50;43.50;;;;;;5131386;28;20163;-72
2021/10/27 07:47:59;;;;;;;1999.90;999.90;;;32.00;42.00;;;;;;5131394;27;20406;-71
2021/10/27 07:50:27;;;;;;;1999.90;999.90;;;31.80;40.40;;;;;;5132457;27;20188;-67
2021/10/27 07:52:58;;;;;;;1999.90;999.90;;;32.10;42.70;;;;;;5132606;27;20190;-66
2021/10/27 07:55:25;;;;;;;1999.90;999.90;;;32.30;41.90;;;;;;5131905;27;20158;-70
2021/10/27 07:57:52;;;;;;;1999.90;999.90;;;32.30;40.40;;;;;;5132809;27;20171;-64
2021/10/27 08:00:19;;;;;;;1999.90;999.90;;;32.90;40.50;;;;;;5131980;27;20171;-63
2021/10/27 08:02:47;;;;;;;1999.90;999.90;;;33.30;40.30;;;;;;5132379;27;20573;-64
2021/10/27 08:05:14;;;;;;;1999.90;999.90;;;33.40;40.50;;;;;;5132214;27;20679;-66
2021/10/27 08:07:46;;;;;;;1999.90;999.90;;;33.30;41.70;;;;;;5132239;27;20195;-69
2021/10/27 08:10:14;;;;;;;1999.90;999.90;;;33.50;40.70;;;;;;5132026;27;20196;-68
2021/10/27 08:12:43;;;;;;;1999.90;999.90;;;33.50;40.90;;;;;;5132889;27;20158;-79
2021/10/27 08:15:10;;;;;;;1999.90;999.90;;;33.70;41.00;;;;;;5136269;27;20163;-61
2021/10/27 08:17:39;;;;;;;1999.90;999.90;;;34.00;40.10;;;;;;5135552;27;20531;-61
2021/10/27 08:20:08;;;;;;;1999.90;999.90;;;34.40;38.10;;;;;;5136184;27;20216;-66
2021/10/27 08:22:36;;;;;;;1999.90;999.90;;;34.30;37.80;;;;;;5135497;27;20696;-77
2021/10/27 08:25:06;;;;;;;1999.90;999.90;;;34.00;37.20;;;;;;5135662;27;20519;-68
2021/10/27 08:27:38;;;;;;;1999.90;999.90;;;34.10;40.40;;;;;;5136150;27;20205;-68
2021/10/27 08:30:07;;;;;;;1999.90;999.90;;;34.90;37.50;;;;;;5135670;27;20159;-65
2021/10/27 08:32:49;;;;;;;1999.90;999.90;;;35.20;36.40;;;;;;5135382;27;20185;-67
2021/10/27 08:35:17;;;;;;;1999.90;999.90;;;34.70;37.40;;;;;;5135780;27;20159;-62
2021/10/27 08:37:49;;;;;;;1999.90;999.90;;;34.70;36.90;;;;;;5134253;27;20233;-62
2021/10/27 08:40:20;;;;;;;1999.90;999.90;;;34.80;38.30;;;;;;5135066;27;20241;-62
2021/10/27 08:42:47;;;;;;;1999.90;999.90;;;34.80;37.40;;;;;;5135650;27;20383;-65
2021/10/27 08:45:15;;;;;;;1999.90;999.90;;;35.00;37.60;;;;;;5134796;27;20532;-63
2021/10/27 08:47:47;;;;;;;1999.90;999.90;;;35.60;35.60;;;;;;5135371;27;20254;-64
2021/10/27 08:50:15;;;;;;;1999.90;999.90;;;35.80;35.10;;;;;;5134894;27;20160;-64
2021/10/27 08:52:43;;;;;;;1999.90;999.90;;;35.60;34.30;;;;;;5135282;27;20520;-62
2021/10/27 08:55:12;;;;;;;1999.90;999.90;;;35.80;34.30;;;;;;5133230;27;20171;-64
2021/10/27 08:57:40;;;;;;;1999.90;999.90;;;36.30;34.20;;;;;;5135132;27;20171;-64
2021/10/27 09:00:14;;;;;;;1999.90;999.90;;;36.60;35.00;;;;;;5135126;27;20173;-63
2021/10/27 09:02:55;;;;;;;1999.90;999.90;;;37.00;36.00;;;;;;5134462;27;20607;-71
2021/10/27 09:08:55;;;;;;;1999.90;999.90;;;37.90;34.10;;;;;;5135200;27;20209;-70
2021/10/27 09:47:48;;;;;;;1999.90;999.90;;;38.80;30.30;;;;;;5133595;27;20338;-64
2021/10/27 10:14:50;;;;;;;1999.90;999.90;;;39.00;29.40;;;;;;5109270;27;20485;-61
2021/10/27 10:17:17;;;;;;;1999.90;999.90;;;38.80;29.80;;;;;;5107358;28;20171;-61
2021/10/27 10:19:45;;;;;;;1999.90;999.90;;;38.80;30.00;;;;;;5108754;28;20179;-61
2021/10/27 10:22:28;;;;;;;1999.90;999.90;;;39.00;29.40;;;;;;5109080;28;20195;-65
2021/10/27 10:25:07;;;;;;;1999.90;999.90;;;38.90;29.10;;;;;;5104129;28;20179;-65
2021/10/27 10:27:47;;;;;;;1999.90;999.90;;;39.10;29.00;;;;;;5108698;28;20167;-71
2021/10/27 10:31:04;;;;;;;1999.90;999.90;;;39.20;29.00;;;;;;5108895;28;20163;-65
2021/10/27 10:33:40;;;;;;;1999.90;999.90;;;39.20;28.90;;;;;;5103129;28;20187;-63
2021/10/27 10:36:14;;;;;;;1999.90;999.90;;;39.30;29.10;;;;;;5109235;28;20155;-64
2021/10/27 10:39:03;;;;;;;1999.90;999.90;;;39.40;28.40;;;;;;5106688;28;20929;-64
2021/10/27 10:44:35;;;;;;;1999.90;999.90;;;39.30;29.10;;;;;;5108465;28;20199;-62
2021/10/27 10:59:09;;;;;;;1999.90;999.90;;;39.10;27.60;;;;;;5108939;28;20170;-63
2021/10/27 11:27:31;;;;;;;1999.90;999.90;;;38.90;29.80;;;;;;5095086;28;20210;-61
2021/10/27 11:39:08;;;;;;;1999.90;999.90;;;37.70;33.70;;;;;;5093915;28;20174;-64
2021/10/27 11:41:52;;;;;;;1999.90;999.90;;;36.40;35.50;;;;;;5093871;28;20277;-60
2021/10/27 11:47:43;;;;;;;1999.90;999.90;;;34.80;38.40;;;;;;5011050;28;20178;-59
2021/10/27 11:50:12;;;;;;;1999.90;999.90;;;34.80;38.80;;;;;;5090563;28;20252;-62
2021/10/27 11:52:40;;;;;;;1999.90;999.90;;;35.20;38.60;;;;;;5093222;28;20649;-64
2021/10/27 11:55:15;;;;;;;1999.90;999.90;;;35.20;38.80;;;;;;5073989;28;20172;-68
2021/10/27 11:57:43;;;;;;;1999.90;999.90;;;34.90;39.20;;;;;;5073752;28;20145;-64
2021/10/27 12:00:38;;;;;;;1999.90;999.90;;;34.50;39.50;;;;;;5073479;28;20200;-63
2021/10/27 12:03:12;;;;;;;1999.90;999.90;;;34.30;40.10;;;;;;5073525;28;20568;-59
2021/10/27 12:05:56;;;;;;;1999.90;999.90;;;34.10;40.40;;;;;;5073565;28;20510;-65
2021/10/27 12:19:24;;;;;;;1999.90;999.90;;;33.70;40.60;;;;;;5109831;27;20499;-60
2021/10/27 12:21:52;;;;;;;1999.90;999.90;;;32.50;43.50;;;;;;5096387;28;20184;-62
2021/10/27 12:24:23;;;;;;;1999.90;999.90;;;32.40;43.30;;;;;;5099316;28;20167;-61
2021/10/27 12:27:08;;;;;;;1999.90;999.90;;;32.30;43.90;;;;;;5096023;28;20184;-60
2021/10/27 12:29:38;;;;;;;1999.90;999.90;;;32.20;43.80;;;;;;5097573;28;20190;-61
2021/10/27 12:32:10;;;;;;;1999.90;999.90;;;32.20;43.90;;;;;;5098087;28;20167;-62
2021/10/27 12:34:49;;;;;;;1999.90;999.90;;;32.40;44.40;;;;;;5098974;28;20190;-64
2021/10/27 12:40:16;;;;;;;1999.90;999.90;;;32.10;43.50;;;;;;5091793;28;20243;-67
2021/10/27 12:42:44;;;;;;;1999.90;999.90;;;31.30;44.30;;;;;;5096751;28;20176;-67
2021/10/27 12:45:10;;;;;;;1999.90;999.90;;;30.70;45.50;;;;;;5097979;28;20492;-68
2021/10/27 12:47:41;;;;;;;1999.90;999.90;;;30.70;46.00;;;;;;5099676;28;20255;-65
2021/10/27 12:50:18;;;;;;;1999.90;999.90;;;30.80;46.40;;;;;;5099237;28;20529;-67
2021/10/27 12:52:58;;;;;;;1999.90;999.90;;;30.90;45.90;;;;;;5096977;28;20179;-65
2021/10/27 12:55:27;;;;;;;1999.90;999.90;;;30.60;46.70;;;;;;5096825;28;20217;-68
2021/10/27 12:57:55;;;;;;;1999.90;999.90;;;30.30;47.60;;;;;;5097278;28;20259;-67
2021/10/27 13:00:46;;;;;;;1999.90;999.90;;;30.20;48.20;;;;;;5090689;28;20255;-64
2021/10/27 13:03:29;;;;;;;1999.90;999.90;;;30.40;48.00;;;;;;5088915;28;20195;-66
2021/10/27 13:06:30;;;;;;;1999.90;999.90;;;30.40;48.60;;;;;;5089024;28;20172;-66
2021/10/27 13:14:29;;;;;;;1999.90;999.90;;;30.00;48.60;;;;;;5089085;28;20159;-69
2021/10/27 13:30:32;;;;;;;1999.90;999.90;;;31.20;43.60;;;;;;5075393;28;20194;-65
2021/10/27 13:33:02;;;;;;;1999.90;999.90;;;31.20;44.30;;;;;;5073903;28;20681;-69
2021/10/27 13:35:33;;;;;;;1999.90;999.90;;;31.10;43.60;;;;;;5075028;28;20213;-65
2021/10/27 13:38:02;;;;;;;1999.90;999.90;;;30.90;43.30;;;;;;5074869;28;20152;-65
2021/10/27 13:40:29;;;;;;;1999.90;999.90;;;30.50;43.20;;;;;;5074839;28;20196;-68
2021/10/27 13:45:33;;;;;;;1999.90;999.90;;;30.10;44.30;;;;;;5074387;28;20165;-63
2021/10/27 14:07:00;;;;;;;1999.90;999.90;;;28.50;52.20;;;;;;5074259;28;20195;-66
2021/10/27 14:09:37;;;;;;;1999.90;999.90;;;28.20;52.70;;;;;;5074432;28;20156;-67
2021/10/27 14:12:19;;;;;;;1999.90;999.90;;;28.00;52.90;;;;;;5074075;28;20272;-69
2021/10/27 14:15:16;;;;;;;1999.90;999.90;;;27.80;52.80;;;;;;5074309;28;20240;-66
2021/10/27 15:20:55;;;;;;;1999.90;999.90;;;23.40;91.60;;;;;;5072925;28;20195;-66
2021/10/27 15:24:13;;;;;;;1999.90;999.90;;;23.30;93.90;;;;;;5072995;28;20153;-66
2021/10/27 15:28:51;;;;;;;1999.90;999.90;;;23.40;94.60;;;;;;5072735;28;20196;-65
2021/10/27 15:34:05;;;;;;;1999.90;999.90;;;23.50;94.60;;;;;;5072848;28;20215;-65
2021/10/27 15:42:13;;;;;;;1999.90;999.90;;;23.60;95.90;;;;;;5072338;28;20239;-67
2021/10/27 15:52:43;;;;;;;1999.90;999.90;;;23.10;99.90;;;;;;5072610;28;20225;-66
2021/10/27 15:55:10;;;;;;;1999.90;999.90;;;23.00;99.90;;;;;;5072517;28;20171;-66
2021/10/27 15:57:37;;;;;;;1999.90;999.90;;;22.90;99.90;;;;;;5071194;28;20183;-66
2021/10/27 16:00:05;;;;;;;1999.90;999.90;;;22.90;99.90;;;;;;5072386;28;20172;-65
2021/10/27 16:02:32;;;;;;;1999.90;999.90;;;22.80;99.90;;;;;;5072532;28;20648;-65
2021/10/27 16:05:00;;;;;;;1999.90;999.90;;;22.70;99.90;;;;;;5072333;28;20165;-66
2021/10/27 16:07:30;;;;;;;1999.90;999.90;;;22.80;99.90;;;;;;5072278;28;20262;-66
2021/10/27 16:10:03;;;;;;;1999.90;999.90;;;22.80;99.90;;;;;;5072436;28;20160;-65
2021/10/27 16:12:30;;;;;;;1999.90;999.90;;;22.80;99.90;;;;;;5072381;28;20661;-68
2021/10/27 16:14:58;;;;;;;1999.90;999.90;;;22.80;99.90;;;;;;5071085;28;20184;-67
2021/10/27 16:17:25;;;;;;;1999.90;999.90;;;22.80;99.90;;;;;;5070789;28;20532;-69
2021/10/27 16:19:52;;;;;;;1999.90;999.90;;;22.70;99.90;;;;;;5072046;28;20168;-68
2021/10/27 16:22:20;;;;;;;1999.90;999.90;;;22.60;99.90;;;;;;5072213;28;20247;-67
2021/10/27 16:24:47;;;;;;;1999.90;999.90;;;22.50;99.90;;;;;;5072284;28;20161;-68
2021/10/27 16:27:14;;;;;;;1999.90;999.90;;;22.40;99.90;;;;;;5072156;28;20719;-68
2021/10/27 16:29:41;;;;;;;1999.90;999.90;;;22.40;99.90;;;;;;5072075;28;20205;-66
2021/10/27 16:32:09;;;;;;;1999.90;999.90;;;22.50;99.90;;;;;;5072190;28;20214;-67
2021/10/27 16:34:36;;;;;;;1999.90;999.90;;;22.40;99.90;;;;;;5072213;28;20192;-66
2021/10/27 16:37:03;;;;;;;1999.90;999.90;;;22.40;99.90;;;;;;5072017;28;20573;-70
2021/10/27 17:00:01;;;;;;;1999.90;999.90;;;22.70;99.90;;;;;;5130939;28;20244;-65
2021/10/27 17:02:40;;;;;;;1999.90;999.90;;;22.70;99.90;;;;;;5130698;28;20180;-66
2021/10/27 17:08:39;;;;;;;1999.90;999.90;;;22.50;99.90;;;;;;5131239;28;20239;-68
2021/10/27 17:11:24;;;;;;;1999.90;999.90;;;22.40;99.90;;;;;;5130575;28;20159;-65
2021/10/27 17:14:01;;;;;;;1999.90;999.90;;;22.20;99.90;;;;;;5130795;28;20178;-67
2021/10/27 17:22:24;;;;;;;1999.90;999.90;;;22.00;99.90;;;;;;5112130;28;20171;-68
2021/10/27 17:24:51;;;;;;;1999.90;999.90;;;22.00;99.90;;;;;;5130429;28;20203;-68
2021/10/27 17:27:22;;;;;;;1999.90;999.90;;;22.00;99.90;;;;;;5130545;28;20647;-68
2021/10/27 17:29:55;;;;;;;1999.90;999.90;;;21.90;99.90;;;;;;5130363;28;20235;-68
2021/10/27 17:32:40;;;;;;;1999.90;999.90;;;21.80;99.90;;;;;;5130268;28;20194;-68
2021/10/27 17:35:18;;;;;;;1999.90;999.90;;;21.90;99.90;;;;;;5130359;28;20165;-68
2021/10/27 17:37:50;;;;;;;1999.90;999.90;;;21.90;99.90;;;;;;5130096;28;20167;-69